sensor_id;sensor_type;location;lat;lon;timestamp;P1;durP1;ratioP1;P2;durP2;ratioP2
42846;SDS011;28495;49.916;14.536;2022-07-06T00:03:30;2.65;;;1.70;;
42846;SDS011;28495;49.916;14.536;2022-07-06T00:08:51;4.05;;;1.90;;
42846;SDS011;28495;49.916;14.536;2022-07-06T00:14:11;1.80;;;1.35;;
42846;SDS011;28495;49.916;14.536;2022-07-06T00:19:33;2.28;;;1.88;;
42846;SDS011;28495;49.916;14.536;2022-07-06T00:24:54;3.55;;;1.80;;
42846;SDS011;28495;49.916;14.536;2022-07-06T00:30:14;7.97;;;2.05;;
42846;SDS011;28495;49.916;14.536;2022-07-06T00:35:35;1.95;;;1.50;;
42846;SDS011;28495;49.916;14.536;2022-07-06T00:40:56;2.08;;;1.42;;
42846;SDS011;28495;49.916;14.536;2022-07-06T00:46:17;3.88;;;1.80;;
42846;SDS011;28495;49.916;14.536;2022-07-06T00:51:38;2.80;;;1.98;;
42846;SDS011;28495;49.916;14.536;2022-07-06T00:56:58;5.75;;;2.22;;
42846;SDS011;28495;49.916;14.536;2022-07-06T01:02:19;3.83;;;1.75;;
42846;SDS011;28495;49.916;14.536;2022-07-06T01:07:43;2.67;;;1.40;;
42846;SDS011;28495;49.916;14.536;2022-07-06T01:13:06;2.35;;;1.65;;
42846;SDS011;28495;49.916;14.536;2022-07-06T01:18:27;3.25;;;1.58;;
42846;SDS011;28495;49.916;14.536;2022-07-06T01:23:48;1.85;;;1.65;;
42846;SDS011;28495;49.916;14.536;2022-07-06T01:29:09;3.17;;;1.80;;
42846;SDS011;28495;49.916;14.536;2022-07-06T01:34:30;1.80;;;1.58;;
42846;SDS011;28495;49.916;14.536;2022-07-06T01:39:51;3.38;;;1.58;;
42846;SDS011;28495;49.916;14.536;2022-07-06T01:45:12;2.35;;;1.80;;
42846;SDS011;28495;49.916;14.536;2022-07-06T01:50:34;3.72;;;1.83;;
42846;SDS011;28495;49.916;14.536;2022-07-06T01:55:54;3.38;;;2.20;;
42846;SDS011;28495;49.916;14.536;2022-07-06T02:01:17;2.90;;;1.90;;
42846;SDS011;28495;49.916;14.536;2022-07-06T02:06:39;3.65;;;1.98;;
42846;SDS011;28495;49.916;14.536;2022-07-06T02:12:00;2.33;;;1.80;;
42846;SDS011;28495;49.916;14.536;2022-07-06T02:17:22;2.78;;;2.00;;
42846;SDS011;28495;49.916;14.536;2022-07-06T02:22:43;2.88;;;1.52;;
42846;SDS011;28495;49.916;14.536;2022-07-06T02:28:04;2.90;;;1.88;;
42846;SDS011;28495;49.916;14.536;2022-07-06T02:33:25;4.32;;;1.55;;
42846;SDS011;28495;49.916;14.536;2022-07-06T02:38:46;3.75;;;1.58;;
42846;SDS011;28495;49.916;14.536;2022-07-06T02:44:09;2.03;;;1.60;;
42846;SDS011;28495;49.916;14.536;2022-07-06T02:49:32;4.28;;;1.80;;
42846;SDS011;28495;49.916;14.536;2022-07-06T02:54:53;5.53;;;2.75;;
42846;SDS011;28495;49.916;14.536;2022-07-06T03:00:14;2.60;;;1.67;;
42846;SDS011;28495;49.916;14.536;2022-07-06T03:05:36;3.53;;;1.52;;
42846;SDS011;28495;49.916;14.536;2022-07-06T03:10:57;1.88;;;1.63;;
42846;SDS011;28495;49.916;14.536;2022-07-06T03:16:18;1.67;;;1.23;;
42846;SDS011;28495;49.916;14.536;2022-07-06T03:21:39;1.42;;;1.17;;
42846;SDS011;28495;49.916;14.536;2022-07-06T03:26:59;7.30;;;1.52;;
42846;SDS011;28495;49.916;14.536;2022-07-06T03:32:21;2.83;;;1.40;;
42846;SDS011;28495;49.916;14.536;2022-07-06T03:37:44;2.47;;;1.35;;
42846;SDS011;28495;49.916;14.536;2022-07-06T03:43:07;1.75;;;1.58;;
42846;SDS011;28495;49.916;14.536;2022-07-06T03:48:30;5.95;;;2.00;;
42846;SDS011;28495;49.916;14.536;2022-07-06T03:53:51;9.85;;;1.77;;
42846;SDS011;28495;49.916;14.536;2022-07-06T03:59:12;3.42;;;1.80;;
42846;SDS011;28495;49.916;14.536;2022-07-06T04:04:35;4.20;;;1.70;;
42846;SDS011;28495;49.916;14.536;2022-07-06T04:09:56;3.65;;;1.38;;
42846;SDS011;28495;49.916;14.536;2022-07-06T04:15:18;3.70;;;1.45;;
42846;SDS011;28495;49.916;14.536;2022-07-06T04:20:39;2.85;;;1.70;;
42846;SDS011;28495;49.916;14.536;2022-07-06T04:25:59;3.33;;;1.50;;
42846;SDS011;28495;49.916;14.536;2022-07-06T04:31:23;2.45;;;1.70;;
42846;SDS011;28495;49.916;14.536;2022-07-06T04:36:45;3.60;;;1.35;;
42846;SDS011;28495;49.916;14.536;2022-07-06T04:42:07;2.90;;;1.50;;
42846;SDS011;28495;49.916;14.536;2022-07-06T04:47:27;2.50;;;1.27;;
42846;SDS011;28495;49.916;14.536;2022-07-06T04:52:49;3.55;;;1.67;;
42846;SDS011;28495;49.916;14.536;2022-07-06T04:58:10;1.10;;;1.05;;
42846;SDS011;28495;49.916;14.536;2022-07-06T05:03:33;3.85;;;1.75;;
42846;SDS011;28495;49.916;14.536;2022-07-06T05:08:57;2.50;;;1.25;;
42846;SDS011;28495;49.916;14.536;2022-07-06T05:14:22;2.05;;;1.50;;
42846;SDS011;28495;49.916;14.536;2022-07-06T05:19:43;2.00;;;1.45;;
42846;SDS011;28495;49.916;14.536;2022-07-06T05:25:05;3.17;;;1.63;;
42846;SDS011;28495;49.916;14.536;2022-07-06T05:30:26;2.33;;;1.67;;
42846;SDS011;28495;49.916;14.536;2022-07-06T05:35:47;1.95;;;1.40;;
42846;SDS011;28495;49.916;14.536;2022-07-06T05:41:14;2.95;;;1.80;;
42846;SDS011;28495;49.916;14.536;2022-07-06T05:46:36;1.20;;;1.10;;
42846;SDS011;28495;49.916;14.536;2022-07-06T05:51:58;3.33;;;1.60;;
42846;SDS011;28495;49.916;14.536;2022-07-06T05:57:20;1.98;;;1.67;;
42846;SDS011;28495;49.916;14.536;2022-07-06T06:02:42;1.67;;;1.58;;
42846;SDS011;28495;49.916;14.536;2022-07-06T06:08:08;2.45;;;1.67;;
42846;SDS011;28495;49.916;14.536;2022-07-06T06:13:29;5.20;;;1.60;;
42846;SDS011;28495;49.916;14.536;2022-07-06T06:18:52;1.27;;;1.17;;
42846;SDS011;28495;49.916;14.536;2022-07-06T06:24:12;1.60;;;1.50;;
42846;SDS011;28495;49.916;14.536;2022-07-06T06:29:33;1.05;;;1.05;;
42846;SDS011;28495;49.916;14.536;2022-07-06T06:34:54;1.45;;;1.23;;
42846;SDS011;28495;49.916;14.536;2022-07-06T06:40:14;2.15;;;1.10;;
42846;SDS011;28495;49.916;14.536;2022-07-06T06:45:35;1.63;;;1.40;;
42846;SDS011;28495;49.916;14.536;2022-07-06T06:50:56;1.70;;;1.23;;
42846;SDS011;28495;49.916;14.536;2022-07-06T06:56:17;3.25;;;1.38;;
42846;SDS011;28495;49.916;14.536;2022-07-06T07:01:37;1.30;;;1.15;;
42846;SDS011;28495;49.916;14.536;2022-07-06T07:06:58;2.17;;;1.30;;
42846;SDS011;28495;49.916;14.536;2022-07-06T07:12:19;1.20;;;1.10;;
42846;SDS011;28495;49.916;14.536;2022-07-06T07:17:40;1.65;;;1.33;;
42846;SDS011;28495;49.916;14.536;2022-07-06T07:23:01;1.33;;;1.20;;
42846;SDS011;28495;49.916;14.536;2022-07-06T07:28:22;2.10;;;1.40;;
42846;SDS011;28495;49.916;14.536;2022-07-06T07:33:43;2.95;;;1.15;;
42846;SDS011;28495;49.916;14.536;2022-07-06T07:39:05;1.27;;;1.17;;
42846;SDS011;28495;49.916;14.536;2022-07-06T07:44:25;1.30;;;1.20;;
42846;SDS011;28495;49.916;14.536;2022-07-06T07:49:47;1.95;;;1.20;;
42846;SDS011;28495;49.916;14.536;2022-07-06T07:55:08;1.20;;;1.10;;
42846;SDS011;28495;49.916;14.536;2022-07-06T08:00:49;3.45;;;1.20;;
42846;SDS011;28495;49.916;14.536;2022-07-06T08:06:10;2.03;;;1.20;;
42846;SDS011;28495;49.916;14.536;2022-07-06T08:11:31;1.20;;;1.10;;
42846;SDS011;28495;49.916;14.536;2022-07-06T08:16:53;2.33;;;1.02;;
42846;SDS011;28495;49.916;14.536;2022-07-06T08:22:14;1.05;;;0.93;;
42846;SDS011;28495;49.916;14.536;2022-07-06T08:27:35;3.20;;;1.27;;
42846;SDS011;28495;49.916;14.536;2022-07-06T08:32:56;2.20;;;1.42;;
42846;SDS011;28495;49.916;14.536;2022-07-06T08:38:27;1.48;;;0.90;;
42846;SDS011;28495;49.916;14.536;2022-07-06T08:43:49;1.10;;;0.95;;
42846;SDS011;28495;49.916;14.536;2022-07-06T08:49:15;1.33;;;1.23;;
42846;SDS011;28495;49.916;14.536;2022-07-06T08:54:37;2.78;;;1.48;;
42846;SDS011;28495;49.916;14.536;2022-07-06T08:59:59;2.20;;;1.58;;
42846;SDS011;28495;49.916;14.536;2022-07-06T09:05:21;1.35;;;1.25;;
42846;SDS011;28495;49.916;14.536;2022-07-06T09:10:43;1.40;;;1.00;;
42846;SDS011;28495;49.916;14.536;2022-07-06T09:16:10;1.35;;;1.05;;
42846;SDS011;28495;49.916;14.536;2022-07-06T09:21:52;2.77;;;1.40;;
42846;SDS011;28495;49.916;14.536;2022-07-06T09:27:17;1.30;;;1.20;;
42846;SDS011;28495;49.916;14.536;2022-07-06T09:32:42;3.17;;;1.10;;
42846;SDS011;28495;49.916;14.536;2022-07-06T09:43:28;1.83;;;0.98;;
42846;SDS011;28495;49.916;14.536;2022-07-06T09:48:50;2.67;;;1.13;;
42846;SDS011;28495;49.916;14.536;2022-07-06T09:54:14;0.60;;;0.60;;
42846;SDS011;28495;49.916;14.536;2022-07-06T09:59:35;2.05;;;0.93;;
42846;SDS011;28495;49.916;14.536;2022-07-06T10:04:57;0.80;;;0.80;;
42846;SDS011;28495;49.916;14.536;2022-07-06T10:10:18;0.93;;;0.82;;
42846;SDS011;28495;49.916;14.536;2022-07-06T10:15:39;0.73;;;0.63;;
42846;SDS011;28495;49.916;14.536;2022-07-06T10:21:01;3.53;;;0.80;;
42846;SDS011;28495;49.916;14.536;2022-07-06T10:26:22;0.98;;;0.88;;
42846;SDS011;28495;49.916;14.536;2022-07-06T10:31:45;1.10;;;1.00;;
42846;SDS011;28495;49.916;14.536;2022-07-06T10:37:09;1.85;;;0.77;;
42846;SDS011;28495;49.916;14.536;2022-07-06T10:53:37;1.98;;;0.90;;
42846;SDS011;28495;49.916;14.536;2022-07-06T10:59:03;1.50;;;0.98;;
42846;SDS011;28495;49.916;14.536;2022-07-06T11:04:30;0.70;;;0.70;;
42846;SDS011;28495;49.916;14.536;2022-07-06T11:09:56;6.00;;;1.13;;
42846;SDS011;28495;49.916;14.536;2022-07-06T11:15:46;0.70;;;0.70;;
42846;SDS011;28495;49.916;14.536;2022-07-06T11:21:18;0.50;;;0.50;;
42846;SDS011;28495;49.916;14.536;2022-07-06T11:26:39;1.30;;;1.20;;
42846;SDS011;28495;49.916;14.536;2022-07-06T11:32:02;1.98;;;1.00;;
42846;SDS011;28495;49.916;14.536;2022-07-06T11:37:24;1.67;;;1.02;;
42846;SDS011;28495;49.916;14.536;2022-07-06T11:42:52;0.70;;;0.70;;
42846;SDS011;28495;49.916;14.536;2022-07-06T11:48:14;1.53;;;1.20;;
42846;SDS011;28495;49.916;14.536;2022-07-06T11:53:35;1.25;;;1.00;;
42846;SDS011;28495;49.916;14.536;2022-07-06T11:58:57;1.58;;;1.17;;
42846;SDS011;28495;49.916;14.536;2022-07-06T12:04:19;1.60;;;1.00;;
42846;SDS011;28495;49.916;14.536;2022-07-06T12:09:46;3.33;;;1.13;;
42846;SDS011;28495;49.916;14.536;2022-07-06T12:15:08;1.75;;;1.33;;
42846;SDS011;28495;49.916;14.536;2022-07-06T12:20:29;4.05;;;1.10;;
42846;SDS011;28495;49.916;14.536;2022-07-06T12:25:51;1.67;;;1.02;;
42846;SDS011;28495;49.916;14.536;2022-07-06T12:31:30;2.10;;;0.90;;
42846;SDS011;28495;49.916;14.536;2022-07-06T12:36:58;2.70;;;1.20;;
42846;SDS011;28495;49.916;14.536;2022-07-06T12:42:27;2.03;;;1.00;;
42846;SDS011;28495;49.916;14.536;2022-07-06T12:48:01;1.45;;;1.00;;
42846;SDS011;28495;49.916;14.536;2022-07-06T12:53:25;1.73;;;1.20;;
42846;SDS011;28495;49.916;14.536;2022-07-06T12:59:00;3.22;;;1.05;;
42846;SDS011;28495;49.916;14.536;2022-07-06T13:04:22;2.58;;;1.10;;
42846;SDS011;28495;49.916;14.536;2022-07-06T13:09:44;1.20;;;1.10;;
42846;SDS011;28495;49.916;14.536;2022-07-06T13:15:06;2.63;;;1.10;;
42846;SDS011;28495;49.916;14.536;2022-07-06T13:20:28;1.20;;;1.10;;
42846;SDS011;28495;49.916;14.536;2022-07-06T13:25:49;2.17;;;1.15;;
42846;SDS011;28495;49.916;14.536;2022-07-06T13:31:10;1.50;;;1.00;;
42846;SDS011;28495;49.916;14.536;2022-07-06T13:36:32;1.05;;;0.93;;
42846;SDS011;28495;49.916;14.536;2022-07-06T13:41:54;1.42;;;1.05;;
42846;SDS011;28495;49.916;14.536;2022-07-06T13:47:15;2.08;;;1.40;;
42846;SDS011;28495;49.916;14.536;2022-07-06T13:52:36;3.50;;;1.30;;
42846;SDS011;28495;49.916;14.536;2022-07-06T13:57:57;4.93;;;1.05;;
42846;SDS011;28495;49.916;14.536;2022-07-06T14:03:18;1.42;;;0.95;;
42846;SDS011;28495;49.916;14.536;2022-07-06T14:08:39;1.40;;;1.30;;
42846;SDS011;28495;49.916;14.536;2022-07-06T14:13:59;1.70;;;1.02;;
42846;SDS011;28495;49.916;14.536;2022-07-06T14:19:20;1.50;;;1.23;;
42846;SDS011;28495;49.916;14.536;2022-07-06T14:24:42;1.15;;;1.08;;
42846;SDS011;28495;49.916;14.536;2022-07-06T14:30:03;2.85;;;1.20;;
42846;SDS011;28495;49.916;14.536;2022-07-06T14:35:24;1.52;;;0.90;;
42846;SDS011;28495;49.916;14.536;2022-07-06T14:40:45;2.70;;;1.08;;
42846;SDS011;28495;49.916;14.536;2022-07-06T14:46:09;3.15;;;1.00;;
42846;SDS011;28495;49.916;14.536;2022-07-06T14:51:30;3.70;;;1.55;;
42846;SDS011;28495;49.916;14.536;2022-07-06T14:56:51;2.40;;;1.13;;
42846;SDS011;28495;49.916;14.536;2022-07-06T15:02:12;0.80;;;0.80;;
42846;SDS011;28495;49.916;14.536;2022-07-06T15:07:33;4.03;;;1.08;;
42846;SDS011;28495;49.916;14.536;2022-07-06T15:12:53;1.17;;;1.08;;
42846;SDS011;28495;49.916;14.536;2022-07-06T15:18:15;1.45;;;1.10;;
42846;SDS011;28495;49.916;14.536;2022-07-06T15:23:36;2.30;;;1.00;;
42846;SDS011;28495;49.916;14.536;2022-07-06T15:28:56;2.75;;;1.00;;
42846;SDS011;28495;49.916;14.536;2022-07-06T15:34:17;2.63;;;0.90;;
42846;SDS011;28495;49.916;14.536;2022-07-06T15:39:38;2.17;;;0.85;;
42846;SDS011;28495;49.916;14.536;2022-07-06T15:44:58;1.25;;;0.90;;
42846;SDS011;28495;49.916;14.536;2022-07-06T15:50:20;0.90;;;0.57;;
42846;SDS011;28495;49.916;14.536;2022-07-06T15:55:41;1.05;;;0.93;;
42846;SDS011;28495;49.916;14.536;2022-07-06T16:01:02;2.10;;;1.00;;
42846;SDS011;28495;49.916;14.536;2022-07-06T16:06:23;0.70;;;0.70;;
42846;SDS011;28495;49.916;14.536;2022-07-06T16:11:44;2.22;;;1.17;;
42846;SDS011;28495;49.916;14.536;2022-07-06T16:17:06;2.35;;;1.00;;
42846;SDS011;28495;49.916;14.536;2022-07-06T16:22:27;1.73;;;0.80;;
42846;SDS011;28495;49.916;14.536;2022-07-06T16:27:48;1.48;;;0.70;;
42846;SDS011;28495;49.916;14.536;2022-07-06T16:33:10;0.90;;;0.70;;
42846;SDS011;28495;49.916;14.536;2022-07-06T16:38:30;1.20;;;0.63;;
42846;SDS011;28495;49.916;14.536;2022-07-06T16:43:52;1.90;;;0.70;;
42846;SDS011;28495;49.916;14.536;2022-07-06T16:49:12;7.15;;;2.30;;
42846;SDS011;28495;49.916;14.536;2022-07-06T16:54:33;7.57;;;4.35;;
42846;SDS011;28495;49.916;14.536;2022-07-06T16:59:55;3.50;;;1.00;;
42846;SDS011;28495;49.916;14.536;2022-07-06T17:05:15;1.98;;;1.25;;
42846;SDS011;28495;49.916;14.536;2022-07-06T17:10:36;3.50;;;0.95;;
42846;SDS011;28495;49.916;14.536;2022-07-06T17:15:57;1.45;;;0.70;;
42846;SDS011;28495;49.916;14.536;2022-07-06T17:21:18;1.92;;;0.90;;
42846;SDS011;28495;49.916;14.536;2022-07-06T17:26:38;3.17;;;0.90;;
42846;SDS011;28495;49.916;14.536;2022-07-06T17:32:00;2.25;;;0.80;;
42846;SDS011;28495;49.916;14.536;2022-07-06T17:37:25;2.80;;;0.75;;
42846;SDS011;28495;49.916;14.536;2022-07-06T17:42:46;2.38;;;1.02;;
42846;SDS011;28495;49.916;14.536;2022-07-06T17:48:06;1.65;;;0.90;;
42846;SDS011;28495;49.916;14.536;2022-07-06T17:53:27;1.58;;;1.13;;
42846;SDS011;28495;49.916;14.536;2022-07-06T17:58:49;1.77;;;0.90;;
42846;SDS011;28495;49.916;14.536;2022-07-06T18:04:09;3.05;;;0.80;;
42846;SDS011;28495;49.916;14.536;2022-07-06T18:09:30;2.03;;;1.05;;
42846;SDS011;28495;49.916;14.536;2022-07-06T18:14:51;3.95;;;1.00;;
42846;SDS011;28495;49.916;14.536;2022-07-06T18:20:11;1.58;;;0.90;;
42846;SDS011;28495;49.916;14.536;2022-07-06T18:25:33;2.38;;;0.90;;
42846;SDS011;28495;49.916;14.536;2022-07-06T18:30:53;2.10;;;1.13;;
42846;SDS011;28495;49.916;14.536;2022-07-06T18:36:14;2.47;;;1.08;;
42846;SDS011;28495;49.916;14.536;2022-07-06T18:41:35;2.08;;;0.80;;
42846;SDS011;28495;49.916;14.536;2022-07-06T18:46:55;2.13;;;0.88;;
42846;SDS011;28495;49.916;14.536;2022-07-06T18:52:17;0.90;;;0.90;;
42846;SDS011;28495;49.916;14.536;2022-07-06T18:57:37;2.45;;;0.90;;
42846;SDS011;28495;49.916;14.536;2022-07-06T19:02:58;2.00;;;0.70;;
42846;SDS011;28495;49.916;14.536;2022-07-06T19:08:19;1.25;;;1.00;;
42846;SDS011;28495;49.916;14.536;2022-07-06T19:13:40;3.70;;;0.95;;
42846;SDS011;28495;49.916;14.536;2022-07-06T19:19:00;1.02;;;0.80;;
42846;SDS011;28495;49.916;14.536;2022-07-06T19:24:21;0.82;;;0.80;;
42846;SDS011;28495;49.916;14.536;2022-07-06T19:29:42;2.45;;;0.93;;
42846;SDS011;28495;49.916;14.536;2022-07-06T19:35:03;2.78;;;0.90;;
42846;SDS011;28495;49.916;14.536;2022-07-06T19:40:25;1.27;;;0.68;;
42846;SDS011;28495;49.916;14.536;2022-07-06T19:45:47;3.20;;;1.15;;
42846;SDS011;28495;49.916;14.536;2022-07-06T19:51:09;1.63;;;1.20;;
42846;SDS011;28495;49.916;14.536;2022-07-06T19:56:30;2.13;;;1.00;;
42846;SDS011;28495;49.916;14.536;2022-07-06T20:01:53;2.35;;;1.50;;
42846;SDS011;28495;49.916;14.536;2022-07-06T20:07:14;2.33;;;1.00;;
42846;SDS011;28495;49.916;14.536;2022-07-06T20:12:36;2.28;;;1.02;;
42846;SDS011;28495;49.916;14.536;2022-07-06T20:17:57;2.33;;;1.00;;
42846;SDS011;28495;49.916;14.536;2022-07-06T20:23:18;3.30;;;1.63;;
42846;SDS011;28495;49.916;14.536;2022-07-06T20:28:43;2.50;;;1.13;;
42846;SDS011;28495;49.916;14.536;2022-07-06T20:34:04;1.70;;;1.27;;
42846;SDS011;28495;49.916;14.536;2022-07-06T20:39:25;2.60;;;1.10;;
42846;SDS011;28495;49.916;14.536;2022-07-06T20:44:46;3.30;;;1.10;;
42846;SDS011;28495;49.916;14.536;2022-07-06T20:50:08;1.73;;;0.98;;
42846;SDS011;28495;49.916;14.536;2022-07-06T20:55:30;2.35;;;0.80;;
42846;SDS011;28495;49.916;14.536;2022-07-06T21:00:51;1.25;;;0.90;;
42846;SDS011;28495;49.916;14.536;2022-07-06T21:06:12;2.47;;;0.93;;
42846;SDS011;28495;49.916;14.536;2022-07-06T21:11:34;2.25;;;0.90;;
42846;SDS011;28495;49.916;14.536;2022-07-06T21:16:55;1.83;;;0.90;;
42846;SDS011;28495;49.916;14.536;2022-07-06T21:22:16;3.78;;;0.85;;
42846;SDS011;28495;49.916;14.536;2022-07-06T21:27:38;0.80;;;0.80;;
42846;SDS011;28495;49.916;14.536;2022-07-06T21:32:59;2.60;;;0.88;;
42846;SDS011;28495;49.916;14.536;2022-07-06T21:38:21;2.22;;;0.65;;
42846;SDS011;28495;49.916;14.536;2022-07-06T21:43:42;3.30;;;0.80;;
42846;SDS011;28495;49.916;14.536;2022-07-06T21:49:03;1.88;;;0.82;;
42846;SDS011;28495;49.916;14.536;2022-07-06T21:54:24;1.80;;;0.60;;
42846;SDS011;28495;49.916;14.536;2022-07-06T21:59:44;3.13;;;0.90;;
42846;SDS011;28495;49.916;14.536;2022-07-06T22:05:05;0.60;;;0.60;;
42846;SDS011;28495;49.916;14.536;2022-07-06T22:10:28;0.77;;;0.68;;
42846;SDS011;28495;49.916;14.536;2022-07-06T22:15:51;2.55;;;1.10;;
42846;SDS011;28495;49.916;14.536;2022-07-06T22:21:12;0.65;;;0.65;;
42846;SDS011;28495;49.916;14.536;2022-07-06T22:26:34;3.97;;;0.80;;
42846;SDS011;28495;49.916;14.536;2022-07-06T22:31:55;1.02;;;0.70;;
42846;SDS011;28495;49.916;14.536;2022-07-06T22:37:16;1.17;;;0.88;;
42846;SDS011;28495;49.916;14.536;2022-07-06T22:42:43;1.90;;;0.93;;
42846;SDS011;28495;49.916;14.536;2022-07-06T22:48:04;2.10;;;0.88;;
42846;SDS011;28495;49.916;14.536;2022-07-06T22:53:25;1.60;;;0.82;;
42846;SDS011;28495;49.916;14.536;2022-07-06T22:58:47;1.25;;;0.90;;
42846;SDS011;28495;49.916;14.536;2022-07-06T23:04:08;1.60;;;1.25;;
42846;SDS011;28495;49.916;14.536;2022-07-06T23:09:29;2.92;;;0.80;;
42846;SDS011;28495;49.916;14.536;2022-07-06T23:14:49;2.15;;;0.90;;
42846;SDS011;28495;49.916;14.536;2022-07-06T23:20:12;0.90;;;0.90;;
42846;SDS011;28495;49.916;14.536;2022-07-06T23:25:33;2.53;;;1.00;;
42846;SDS011;28495;49.916;14.536;2022-07-06T23:30:54;2.33;;;0.80;;
42846;SDS011;28495;49.916;14.536;2022-07-06T23:36:14;1.58;;;1.35;;
42846;SDS011;28495;49.916;14.536;2022-07-06T23:41:35;4.18;;;1.10;;
42846;SDS011;28495;49.916;14.536;2022-07-06T23:46:55;7.10;;;0.73;;
42846;SDS011;28495;49.916;14.536;2022-07-06T23:52:16;0.98;;;0.88;;
42846;SDS011;28495;49.916;14.536;2022-07-06T23:57:37;7.50;;;1.00;;
